createdAt,value
2019-02-20T00:00:16.015Z,5.13
2019-02-20T00:05:19.531Z,5.57
2019-02-20T00:10:23.054Z,5.57
2019-02-20T00:15:26.597Z,4.77
2019-02-20T00:20:30.122Z,5.93
2019-02-20T00:25:33.406Z,5.20
2019-02-20T00:30:36.685Z,4.90
2019-02-20T00:35:40.204Z,5.50
2019-02-20T00:40:43.735Z,5.67
2019-02-20T00:45:57.682Z,4.90
2019-02-20T00:51:05.563Z,5.50
2019-02-20T00:56:09.088Z,5.70
2019-02-20T01:01:12.369Z,5.20
2019-02-20T01:06:15.894Z,4.77
2019-02-20T01:11:19.420Z,4.67
2019-02-20T01:16:23.243Z,4.83
2019-02-20T01:21:26.523Z,5.03
2019-02-20T01:26:30.044Z,5.23
2019-02-20T01:31:33.325Z,4.93
2019-02-20T01:36:36.844Z,4.87
2019-02-20T01:41:40.121Z,4.30
2019-02-20T01:46:43.400Z,5.33
2019-02-20T01:51:46.687Z,5.40
2019-02-20T01:56:50.211Z,5.37
2019-02-20T02:01:53.731Z,5.67
2019-02-20T02:06:57.258Z,5.40
2019-02-20T02:12:00.768Z,5.33
2019-02-20T02:17:04.458Z,5.47
2019-02-20T02:22:07.991Z,5.90
2019-02-20T02:27:11.508Z,5.27
2019-02-20T02:32:15.034Z,5.77
2019-02-20T02:37:18.311Z,5.40
2019-02-20T02:42:21.657Z,6.20
2019-02-20T02:47:24.941Z,6.00
2019-02-20T02:52:28.220Z,6.00
2019-02-20T02:57:31.502Z,6.47
2019-02-20T03:02:34.788Z,6.50
2019-02-20T03:07:38.076Z,6.47
2019-02-20T03:12:41.616Z,7.27
2019-02-20T03:17:44.892Z,6.53
2019-02-20T03:22:48.175Z,6.33
2019-02-20T03:27:51.686Z,6.40
2019-02-20T03:32:54.981Z,5.90
2019-02-20T03:37:58.253Z,5.47
2019-02-20T03:43:01.541Z,6.33
2019-02-20T03:48:04.816Z,6.63
2019-02-20T03:53:08.094Z,6.27
2019-02-20T03:58:11.608Z,6.37
2019-02-20T04:03:14.895Z,6.47
2019-02-20T04:08:18.418Z,6.27
2019-02-20T04:13:21.717Z,6.50
2019-02-20T04:18:25.234Z,6.20
2019-02-20T04:23:28.750Z,6.70
2019-02-20T04:28:32.546Z,5.70
2019-02-20T04:33:35.826Z,6.57
2019-02-20T04:38:39.107Z,5.93
2019-02-20T04:43:42.654Z,6.53
2019-02-20T04:48:46.169Z,6.90
2019-02-20T04:53:49.692Z,6.90
2019-02-20T04:58:58.732Z,6.57
2019-02-20T05:04:02.260Z,6.70
2019-02-20T05:09:06.252Z,6.17
2019-02-20T05:14:09.541Z,6.30
2019-02-20T05:19:12.888Z,6.30
2019-02-20T05:24:24.232Z,6.03
2019-02-20T05:29:21.181Z,5.80
2019-02-20T05:34:24.707Z,6.17
2019-02-20T05:39:28.233Z,5.53
2019-02-20T05:44:31.756Z,5.43
2019-02-20T05:49:35.041Z,6.17
2019-02-20T05:54:38.327Z,5.13
2019-02-20T05:59:41.848Z,5.90
2019-02-20T06:04:45.367Z,4.90
2019-02-20T06:09:48.889Z,5.50
2019-02-20T06:14:52.406Z,5.07
2019-02-20T06:19:55.925Z,4.93
2019-02-20T06:24:59.205Z,4.93
2019-02-20T06:30:02.556Z,5.00
2019-02-20T06:35:06.662Z,5.40
2019-02-20T06:40:10.275Z,5.30
2019-02-20T06:45:13.791Z,5.03
2019-02-20T06:50:17.326Z,6.03
2019-02-20T06:55:20.847Z,4.87
2019-02-20T07:00:24.132Z,4.70
2019-02-20T07:05:29.719Z,4.17
2019-02-20T07:11:03.423Z,5.83
2019-02-20T07:16:12.780Z,8.17
2019-02-20T07:21:36.941Z,11.10
2019-02-20T07:26:58.804Z,6.70
2019-02-20T07:32:02.312Z,5.80
2019-02-20T07:37:05.958Z,5.53
2019-02-20T07:42:09.663Z,6.57
2019-02-20T07:47:12.940Z,5.97
2019-02-20T07:52:16.242Z,5.87
2019-02-20T07:57:19.527Z,5.83
2019-02-20T08:02:22.818Z,5.83
2019-02-20T08:07:26.356Z,6.10
2019-02-20T08:12:29.888Z,5.20
2019-02-20T08:17:33.436Z,6.43
2019-02-20T08:22:36.714Z,5.53
2019-02-20T08:27:40.250Z,6.40
2019-02-20T08:32:43.776Z,5.33
2019-02-20T08:37:47.068Z,6.20
2019-02-20T08:42:50.575Z,6.13
2019-02-20T08:47:53.877Z,39.93
2019-02-20T08:52:57.379Z,8.63
2019-02-20T08:58:00.931Z,8.87
2019-02-20T09:03:04.220Z,15.27
2019-02-20T09:08:07.754Z,11.87
2019-02-20T09:13:11.044Z,13.10
2019-02-20T09:18:14.595Z,8.90
2019-02-20T09:23:18.121Z,9.00
2019-02-20T09:28:21.658Z,10.90
2019-02-20T09:33:24.971Z,10.70
2019-02-20T09:38:28.512Z,11.20
2019-02-20T09:43:31.892Z,10.73
2019-02-20T09:48:35.207Z,12.07
2019-02-20T09:53:38.479Z,12.50
2019-02-20T09:58:41.762Z,12.67
2019-02-20T10:03:45.292Z,11.50
2019-02-20T10:08:48.579Z,12.07
2019-02-20T10:13:52.096Z,11.50
2019-02-20T10:18:55.376Z,12.17
2019-02-20T10:23:58.940Z,11.90
2019-02-20T10:29:02.429Z,11.50
2019-02-20T10:34:05.962Z,13.07
2019-02-20T10:39:09.243Z,10.07
2019-02-20T10:44:12.527Z,11.10
2019-02-20T10:49:15.813Z,10.40
2019-02-20T10:54:19.083Z,8.87
2019-02-20T10:59:22.611Z,9.97
2019-02-20T11:04:26.136Z,9.73
2019-02-20T11:09:29.427Z,10.07
2019-02-20T11:14:32.717Z,10.43
2019-02-20T11:19:36.074Z,11.17
2019-02-20T11:24:39.360Z,11.07
2019-02-20T11:29:42.893Z,11.97
2019-02-20T11:34:46.187Z,11.97
2019-02-20T11:39:49.718Z,11.37
2019-02-20T11:44:53.018Z,12.40
2019-02-20T11:49:56.551Z,11.73
2019-02-20T11:54:59.890Z,12.30
2019-02-20T12:00:03.483Z,12.97
2019-02-20T12:05:06.767Z,12.40
2019-02-20T12:10:12.870Z,12.07
2019-02-20T12:15:16.161Z,12.10
2019-02-20T12:20:19.768Z,11.93
2019-02-20T12:25:23.291Z,10.80
2019-02-20T12:30:26.833Z,11.63
2019-02-20T12:35:30.418Z,8.50
2019-02-20T12:40:33.937Z,8.83
2019-02-20T12:45:37.219Z,8.50
2019-02-20T12:50:40.753Z,9.30
2019-02-20T12:55:44.033Z,9.63
2019-02-20T13:00:47.849Z,11.50
2019-02-20T13:05:51.373Z,10.30
2019-02-20T13:10:56.627Z,10.27
2019-02-20T13:16:00.380Z,9.40
2019-02-20T13:21:03.807Z,9.80
2019-02-20T13:26:07.101Z,10.33
2019-02-20T13:31:10.631Z,9.37
2019-02-20T13:36:14.128Z,9.27
2019-02-20T13:41:17.680Z,7.87
2019-02-20T13:46:21.883Z,6.77
2019-02-20T13:51:25.169Z,6.23
2019-02-20T13:56:28.867Z,5.70
2019-02-20T14:01:32.143Z,4.30
2019-02-20T14:06:35.422Z,4.53
2019-02-20T14:11:38.759Z,4.63
2019-02-20T14:16:42.031Z,4.60
2019-02-20T14:21:45.878Z,4.03
2019-02-20T14:26:56.366Z,3.63
2019-02-20T14:32:00.064Z,3.60
2019-02-20T14:37:03.349Z,3.00
2019-02-20T14:42:06.876Z,3.17
2019-02-20T14:47:10.576Z,3.53
2019-02-20T14:52:14.093Z,2.73
2019-02-20T14:57:19.586Z,2.97
2019-02-20T15:02:22.619Z,3.10
2019-02-20T15:07:25.889Z,2.87
2019-02-20T15:12:29.546Z,3.53
2019-02-20T15:17:33.072Z,3.07
2019-02-20T15:22:36.587Z,3.47
2019-02-20T15:27:39.881Z,4.40
2019-02-20T15:32:43.147Z,4.60
2019-02-20T15:37:46.428Z,3.80
2019-02-20T15:42:49.954Z,4.23
2019-02-20T15:47:53.480Z,4.23
2019-02-20T15:52:56.762Z,4.40
2019-02-20T15:58:00.283Z,4.67
2019-02-20T16:03:03.810Z,4.30
2019-02-20T16:08:07.440Z,4.90
2019-02-20T16:13:10.987Z,5.50
2019-02-20T16:18:14.693Z,5.17
2019-02-20T16:23:17.980Z,5.47
2019-02-20T16:28:21.265Z,5.37
2019-02-20T16:33:24.782Z,5.13
2019-02-20T16:38:30.553Z,4.47
2019-02-20T16:43:34.424Z,5.87
2019-02-20T16:48:44.234Z,4.90
2019-02-20T16:53:49.712Z,4.20
2019-02-20T16:58:55.986Z,4.90
2019-02-20T17:04:02.306Z,5.30
2019-02-20T17:09:07.359Z,4.57
2019-02-20T17:14:12.080Z,4.53
2019-02-20T17:19:15.942Z,5.80
2019-02-20T17:24:21.154Z,5.97
2019-02-20T17:29:24.708Z,5.77
2019-02-20T17:34:28.532Z,5.60
2019-02-20T17:39:34.424Z,5.53
2019-02-20T17:44:37.982Z,5.40
2019-02-20T17:49:41.275Z,5.70
2019-02-20T17:54:44.559Z,6.23
2019-02-20T17:59:47.895Z,6.63
2019-02-20T18:04:51.183Z,7.13
2019-02-20T18:09:54.706Z,6.40
2019-02-20T18:14:58.287Z,5.70
2019-02-20T18:20:01.608Z,6.80
2019-02-20T18:25:07.087Z,17.03
2019-02-20T18:30:13.781Z,9.63
2019-02-20T18:35:18.301Z,11.30
2019-02-20T18:40:21.601Z,13.40
2019-02-20T18:45:25.308Z,9.73
2019-02-20T18:50:28.854Z,13.37
2019-02-20T18:55:32.195Z,10.30
2019-02-20T19:00:36.224Z,9.37
2019-02-20T19:05:39.760Z,11.27
2019-02-20T19:10:43.069Z,12.13
2019-02-20T19:15:55.739Z,11.40
2019-02-20T19:21:14.743Z,11.53
2019-02-20T19:26:42.209Z,10.70
2019-02-20T19:32:13.884Z,10.90
2019-02-20T19:37:32.444Z,8.00
2019-02-20T19:42:57.404Z,12.67
2019-02-20T19:48:27.875Z,11.73
2019-02-20T19:53:46.669Z,12.90
2019-02-20T19:59:17.060Z,11.60
2019-02-20T20:04:32.371Z,12.00
2019-02-20T20:09:50.967Z,14.00
2019-02-20T20:15:16.816Z,9.03
2019-02-20T20:20:38.718Z,8.77
2019-02-20T20:25:45.454Z,9.53
2019-02-20T20:31:03.809Z,8.50
2019-02-20T20:36:22.227Z,8.67
2019-02-20T20:41:44.007Z,8.63
2019-02-20T20:47:02.856Z,9.93
2019-02-20T20:52:10.082Z,10.20
2019-02-20T20:57:28.392Z,13.43
2019-02-20T21:02:35.093Z,13.47
2019-02-20T21:07:53.161Z,16.63
2019-02-20T21:13:16.529Z,15.67
2019-02-20T21:18:32.223Z,14.07
2019-02-20T21:23:41.964Z,13.27
2019-02-20T21:28:54.429Z,12.73
2019-02-20T21:34:09.890Z,11.70
2019-02-20T21:39:34.842Z,12.90
2019-02-20T21:44:44.185Z,13.47
2019-02-20T21:49:56.648Z,13.60
2019-02-20T21:55:05.631Z,10.83
2019-02-20T22:00:36.489Z,12.27
2019-02-20T22:05:43.198Z,10.63
2019-02-20T22:11:08.464Z,10.37
2019-02-20T22:16:20.733Z,12.03
2019-02-20T22:21:35.871Z,10.63
2019-02-20T22:26:46.287Z,10.90
2019-02-20T22:32:00.616Z,11.00
2019-02-20T22:37:21.708Z,10.77
2019-02-20T22:42:30.994Z,12.00
2019-02-20T22:48:14.220Z,10.17
2019-02-20T22:53:20.689Z,10.67
2019-02-20T22:58:27.135Z,9.73
2019-02-20T23:03:54.961Z,10.40
2019-02-20T23:09:07.056Z,11.73
2019-02-20T23:14:38.827Z,9.70
2019-02-20T23:19:42.107Z,11.70
2019-02-20T23:24:45.405Z,10.87
2019-02-20T23:29:49.556Z,11.60
2019-02-20T23:34:52.832Z,11.60
2019-02-20T23:39:56.368Z,11.03
2019-02-20T23:44:59.905Z,10.93
2019-02-20T23:50:03.263Z,11.17
2019-02-20T23:55:06.966Z,13.53
